マガダン の空港の天気 - METARとTAF

マガダン・ソコル空港 ( UHMM / GDX ) - ロシア マガダン
飛行場実況気象(Metar)
観測時間01/22 05:00 MAGT (01/21 18:00 UTC)
風向・風速北 6m/s 瞬間風速11m/s
視程5000m
天気現象弱いしゅう雪 低い地吹雪
全天の8割程度の雲 雲底高度 640m
気温-7℃
湿度73%
気圧993hPa
METARUHMM 211800Z 01006G11MPS 5000 -SHSN DRSN BKN021CB M07/M11 Q0993 RMK QFE730
過去の天気等 Google飛行場航空写真 Wunderground天気予報

過去48時間のMETAR

飛行場予報(TAF)
発表時間: 1/22 03:50 MAGT (1/21 16:50 UTC)
予報対象時間: 22日5時 MAGT ~ 23日11時 MAGT
風向・風速北東 6m/s 瞬間風速 12m/s
視程3,100m
天気現象弱いしゅう雪 高い地吹雪
全天の8割程度の積乱雲 雲底高度 760m
全天を覆う雲 雲底高度 2,130m
22日5時 MAGT ~ 22日7時 MAGT に一時的に
視程800m
天気現象強いしゅう雪 高い地吹雪
全天を覆う雲 鉛直視程 150m
22日7時 MAGT から
風向・風速東 5m/s 瞬間風速 13m/s
視程2,000m
天気現象しゅう雪
全天の8割程度の積乱雲 雲底高度 340m
全天を覆う雲 雲底高度 2,130m
22日7時 MAGT ~ 23日1時 MAGT に一時的に
風向・風速北東 5m/s 瞬間風速 11m/s
視程600m
天気現象強いしゅう雪
全天を覆う雲 鉛直視程 90m
TAF UHMM 211650Z 2118/2224 04006G12MPS 3100 -SHSN BLSN BKN025CB OVC070
TEMPO 2118/2120 0800 +SHSN BLSN VV005
FM212000 10005G13MPS 2000 SHSN BKN011CB OVC070
TEMPO 2120/2214 04005G11MPS 0600 +SHSN VV003